sensor_id;sensor_type;location;lat;lon;timestamp;temperature;humidity
11320;DHT22;5715;48.234;14.320;2022-10-12T00:02:33;10.60;99.90
11320;DHT22;5715;48.234;14.320;2022-10-12T00:05:21;10.60;99.90
11320;DHT22;5715;48.234;14.320;2022-10-12T00:08:08;10.60;99.90
11320;DHT22;5715;48.234;14.320;2022-10-12T00:10:56;10.60;99.90
11320;DHT22;5715;48.234;14.320;2022-10-12T00:13:45;10.50;99.90
11320;DHT22;5715;48.234;14.320;2022-10-12T00:16:33;10.50;99.90
11320;DHT22;5715;48.234;14.320;2022-10-12T00:19:21;10.50;99.90
11320;DHT22;5715;48.234;14.320;2022-10-12T00:22:08;10.40;99.90
11320;DHT22;5715;48.234;14.320;2022-10-12T00:24:56;10.40;99.90
11320;DHT22;5715;48.234;14.320;2022-10-12T00:27:43;10.30;99.90
11320;DHT22;5715;48.234;14.320;2022-10-12T00:30:33;10.30;99.90
11320;DHT22;5715;48.234;14.320;2022-10-12T00:33:21;10.40;99.90
11320;DHT22;5715;48.234;14.320;2022-10-12T00:36:20;10.60;99.90
11320;DHT22;5715;48.234;14.320;2022-10-12T00:39:10;10.70;99.90
11320;DHT22;5715;48.234;14.320;2022-10-12T00:41:57;10.70;99.90
11320;DHT22;5715;48.234;14.320;2022-10-12T00:44:48;10.70;99.90
11320;DHT22;5715;48.234;14.320;2022-10-12T00:47:39;10.70;99.90
11320;DHT22;5715;48.234;14.320;2022-10-12T00:50:32;10.80;99.90
11320;DHT22;5715;48.234;14.320;2022-10-12T00:53:25;10.80;99.90
11320;DHT22;5715;48.234;14.320;2022-10-12T00:56:19;10.70;99.90
11320;DHT22;5715;48.234;14.320;2022-10-12T00:59:14;10.70;99.90
11320;DHT22;5715;48.234;14.320;2022-10-12T01:02:05;10.60;99.90
11320;DHT22;5715;48.234;14.320;2022-10-12T01:04:53;10.60;99.90
11320;DHT22;5715;48.234;14.320;2022-10-12T01:07:41;10.80;99.90
11320;DHT22;5715;48.234;14.320;2022-10-12T01:10:28;11.00;99.90
11320;DHT22;5715;48.234;14.320;2022-10-12T01:13:16;11.10;99.90
11320;DHT22;5715;48.234;14.320;2022-10-12T01:16:15;11.20;99.90
11320;DHT22;5715;48.234;14.320;2022-10-12T01:22:19;11.40;99.90
11320;DHT22;5715;48.234;14.320;2022-10-12T01:25:20;11.50;99.90
11320;DHT22;5715;48.234;14.320;2022-10-12T01:31:35;11.60;99.90
11320;DHT22;5715;48.234;14.320;2022-10-12T01:44:24;10.80;99.90
11320;DHT22;5715;48.234;14.320;2022-10-12T01:47:12;10.60;99.90
11320;DHT22;5715;48.234;14.320;2022-10-12T01:50:02;10.50;99.90
11320;DHT22;5715;48.234;14.320;2022-10-12T01:56:17;10.40;99.90
11320;DHT22;5715;48.234;14.320;2022-10-12T01:59:35;10.40;99.90
11320;DHT22;5715;48.234;14.320;2022-10-12T02:03:05;10.30;99.90
11320;DHT22;5715;48.234;14.320;2022-10-12T02:06:15;10.30;99.90
11320;DHT22;5715;48.234;14.320;2022-10-12T02:09:27;10.20;99.90
11320;DHT22;5715;48.234;14.320;2022-10-12T02:12:19;10.10;99.90
11320;DHT22;5715;48.234;14.320;2022-10-12T02:15:11;10.00;99.90
11320;DHT22;5715;48.234;14.320;2022-10-12T02:18:02;10.00;99.90
11320;DHT22;5715;48.234;14.320;2022-10-12T02:20:53;9.90;99.90
11320;DHT22;5715;48.234;14.320;2022-10-12T02:23:44;9.90;99.90
11320;DHT22;5715;48.234;14.320;2022-10-12T02:26:37;10.00;99.90
11320;DHT22;5715;48.234;14.320;2022-10-12T02:29:35;9.90;99.90
11320;DHT22;5715;48.234;14.320;2022-10-12T02:32:41;9.80;99.90
11320;DHT22;5715;48.234;14.320;2022-10-12T02:35:45;9.80;99.90
11320;DHT22;5715;48.234;14.320;2022-10-12T02:38:52;9.80;99.90
11320;DHT22;5715;48.234;14.320;2022-10-12T02:41:48;9.80;99.90
11320;DHT22;5715;48.234;14.320;2022-10-12T02:44:39;9.80;99.90
11320;DHT22;5715;48.234;14.320;2022-10-12T02:47:30;9.70;99.90
11320;DHT22;5715;48.234;14.320;2022-10-12T02:50:21;9.70;99.90
11320;DHT22;5715;48.234;14.320;2022-10-12T02:53:11;9.70;99.90
11320;DHT22;5715;48.234;14.320;2022-10-12T02:56:04;9.70;99.90
11320;DHT22;5715;48.234;14.320;2022-10-12T02:58:54;9.60;99.90
11320;DHT22;5715;48.234;14.320;2022-10-12T03:01:42;9.70;99.90
11320;DHT22;5715;48.234;14.320;2022-10-12T03:04:30;9.60;99.90
11320;DHT22;5715;48.234;14.320;2022-10-12T03:07:17;9.60;99.90
11320;DHT22;5715;48.234;14.320;2022-10-12T03:10:05;9.60;99.90
11320;DHT22;5715;48.234;14.320;2022-10-12T03:12:53;9.60;99.90
11320;DHT22;5715;48.234;14.320;2022-10-12T03:15:41;9.60;99.90
11320;DHT22;5715;48.234;14.320;2022-10-12T03:18:28;9.60;99.90
11320;DHT22;5715;48.234;14.320;2022-10-12T03:21:16;9.70;99.90
11320;DHT22;5715;48.234;14.320;2022-10-12T03:24:04;10.00;99.90
11320;DHT22;5715;48.234;14.320;2022-10-12T03:26:51;10.30;99.90
11320;DHT22;5715;48.234;14.320;2022-10-12T03:29:39;10.60;99.90
11320;DHT22;5715;48.234;14.320;2022-10-12T03:32:26;10.80;99.90
11320;DHT22;5715;48.234;14.320;2022-10-12T03:35:14;11.10;99.90
11320;DHT22;5715;48.234;14.320;2022-10-12T03:38:02;11.20;99.90
11320;DHT22;5715;48.234;14.320;2022-10-12T03:40:50;11.30;99.90
11320;DHT22;5715;48.234;14.320;2022-10-12T03:43:38;11.40;99.90
11320;DHT22;5715;48.234;14.320;2022-10-12T03:46:26;11.50;99.90
11320;DHT22;5715;48.234;14.320;2022-10-12T03:49:13;11.60;99.90
11320;DHT22;5715;48.234;14.320;2022-10-12T03:52:01;11.70;99.90
11320;DHT22;5715;48.234;14.320;2022-10-12T03:54:48;11.70;99.90
11320;DHT22;5715;48.234;14.320;2022-10-12T03:57:36;11.70;99.90
11320;DHT22;5715;48.234;14.320;2022-10-12T04:00:25;11.70;99.90
11320;DHT22;5715;48.234;14.320;2022-10-12T04:03:14;11.70;99.90
11320;DHT22;5715;48.234;14.320;2022-10-12T04:06:01;11.70;99.90
11320;DHT22;5715;48.234;14.320;2022-10-12T04:08:49;11.80;99.90
11320;DHT22;5715;48.234;14.320;2022-10-12T04:11:37;11.80;99.90
11320;DHT22;5715;48.234;14.320;2022-10-12T04:14:24;11.90;99.90
11320;DHT22;5715;48.234;14.320;2022-10-12T04:17:14;11.90;99.90
11320;DHT22;5715;48.234;14.320;2022-10-12T04:20:03;11.80;99.90
11320;DHT22;5715;48.234;14.320;2022-10-12T04:22:51;11.70;99.90
11320;DHT22;5715;48.234;14.320;2022-10-12T04:25:39;11.60;99.90
11320;DHT22;5715;48.234;14.320;2022-10-12T04:28:26;11.50;99.90
11320;DHT22;5715;48.234;14.320;2022-10-12T04:31:14;11.50;99.90
11320;DHT22;5715;48.234;14.320;2022-10-12T04:34:01;11.30;99.90
11320;DHT22;5715;48.234;14.320;2022-10-12T04:36:49;11.20;99.90
11320;DHT22;5715;48.234;14.320;2022-10-12T04:39:36;11.20;99.90
11320;DHT22;5715;48.234;14.320;2022-10-12T04:42:24;11.10;99.90
11320;DHT22;5715;48.234;14.320;2022-10-12T04:45:11;11.00;99.90
11320;DHT22;5715;48.234;14.320;2022-10-12T04:47:59;11.00;99.90
11320;DHT22;5715;48.234;14.320;2022-10-12T04:50:47;11.00;99.90
11320;DHT22;5715;48.234;14.320;2022-10-12T04:53:34;11.00;99.90
11320;DHT22;5715;48.234;14.320;2022-10-12T04:56:22;11.10;99.90
11320;DHT22;5715;48.234;14.320;2022-10-12T04:59:09;11.30;99.90
11320;DHT22;5715;48.234;14.320;2022-10-12T05:01:57;11.40;99.90
11320;DHT22;5715;48.234;14.320;2022-10-12T05:04:44;11.50;99.90
11320;DHT22;5715;48.234;14.320;2022-10-12T05:07:32;11.70;99.90
11320;DHT22;5715;48.234;14.320;2022-10-12T05:10:19;11.80;99.90
11320;DHT22;5715;48.234;14.320;2022-10-12T05:13:07;11.80;99.90
11320;DHT22;5715;48.234;14.320;2022-10-12T05:15:54;11.90;99.90
11320;DHT22;5715;48.234;14.320;2022-10-12T05:18:42;12.00;99.90
11320;DHT22;5715;48.234;14.320;2022-10-12T05:21:29;12.00;99.90
11320;DHT22;5715;48.234;14.320;2022-10-12T05:24:17;12.10;99.90
11320;DHT22;5715;48.234;14.320;2022-10-12T05:27:04;12.10;99.90
11320;DHT22;5715;48.234;14.320;2022-10-12T05:29:52;12.10;99.90
11320;DHT22;5715;48.234;14.320;2022-10-12T05:32:39;12.10;99.90
11320;DHT22;5715;48.234;14.320;2022-10-12T05:35:29;12.00;99.90
11320;DHT22;5715;48.234;14.320;2022-10-12T05:38:17;12.00;99.90
11320;DHT22;5715;48.234;14.320;2022-10-12T05:41:05;12.00;99.90
11320;DHT22;5715;48.234;14.320;2022-10-12T05:43:52;12.00;99.90
11320;DHT22;5715;48.234;14.320;2022-10-12T05:46:40;12.00;99.90
11320;DHT22;5715;48.234;14.320;2022-10-12T05:49:27;12.00;99.90
11320;DHT22;5715;48.234;14.320;2022-10-12T05:52:16;12.00;99.90
11320;DHT22;5715;48.234;14.320;2022-10-12T05:55:04;12.00;99.90
11320;DHT22;5715;48.234;14.320;2022-10-12T05:57:52;12.00;99.90
11320;DHT22;5715;48.234;14.320;2022-10-12T06:00:40;12.00;99.90
11320;DHT22;5715;48.234;14.320;2022-10-12T06:03:27;12.00;99.90
11320;DHT22;5715;48.234;14.320;2022-10-12T06:06:21;12.10;99.90
11320;DHT22;5715;48.234;14.320;2022-10-12T06:09:09;12.10;99.90
11320;DHT22;5715;48.234;14.320;2022-10-12T06:11:58;12.10;99.90
11320;DHT22;5715;48.234;14.320;2022-10-12T06:14:45;12.10;99.90
11320;DHT22;5715;48.234;14.320;2022-10-12T06:17:33;12.10;99.90
11320;DHT22;5715;48.234;14.320;2022-10-12T06:20:20;12.20;99.90
11320;DHT22;5715;48.234;14.320;2022-10-12T06:23:07;12.20;99.90
11320;DHT22;5715;48.234;14.320;2022-10-12T06:25:55;12.20;99.90
11320;DHT22;5715;48.234;14.320;2022-10-12T06:28:43;12.20;99.90
11320;DHT22;5715;48.234;14.320;2022-10-12T06:31:30;12.30;99.90
11320;DHT22;5715;48.234;14.320;2022-10-12T06:34:19;12.30;99.90
11320;DHT22;5715;48.234;14.320;2022-10-12T06:37:07;12.30;99.90
11320;DHT22;5715;48.234;14.320;2022-10-12T06:40:15;12.30;99.90
11320;DHT22;5715;48.234;14.320;2022-10-12T06:43:06;12.30;99.90
11320;DHT22;5715;48.234;14.320;2022-10-12T06:45:58;12.30;99.90
11320;DHT22;5715;48.234;14.320;2022-10-12T06:48:47;12.30;99.90
11320;DHT22;5715;48.234;14.320;2022-10-12T06:51:35;12.30;99.90
11320;DHT22;5715;48.234;14.320;2022-10-12T06:54:22;12.30;99.90
11320;DHT22;5715;48.234;14.320;2022-10-12T06:57:10;12.30;99.90
11320;DHT22;5715;48.234;14.320;2022-10-12T06:59:57;12.30;99.90
11320;DHT22;5715;48.234;14.320;2022-10-12T07:02:48;12.30;99.90
11320;DHT22;5715;48.234;14.320;2022-10-12T07:05:36;12.40;99.90
11320;DHT22;5715;48.234;14.320;2022-10-12T07:08:24;12.50;99.90
11320;DHT22;5715;48.234;14.320;2022-10-12T07:11:12;12.50;99.90
11320;DHT22;5715;48.234;14.320;2022-10-12T07:13:59;12.60;99.90
11320;DHT22;5715;48.234;14.320;2022-10-12T07:16:47;12.60;99.90
11320;DHT22;5715;48.234;14.320;2022-10-12T07:19:41;12.70;99.90
11320;DHT22;5715;48.234;14.320;2022-10-12T07:22:28;12.70;99.90
11320;DHT22;5715;48.234;14.320;2022-10-12T07:25:16;12.70;99.90
11320;DHT22;5715;48.234;14.320;2022-10-12T07:28:03;12.80;99.90
11320;DHT22;5715;48.234;14.320;2022-10-12T07:30:52;12.80;99.90
11320;DHT22;5715;48.234;14.320;2022-10-12T07:33:39;12.90;99.90
11320;DHT22;5715;48.234;14.320;2022-10-12T07:36:27;12.90;99.90
11320;DHT22;5715;48.234;14.320;2022-10-12T07:39:34;12.90;99.90
11320;DHT22;5715;48.234;14.320;2022-10-12T07:42:23;13.00;99.90
11320;DHT22;5715;48.234;14.320;2022-10-12T07:45:11;12.90;99.90
11320;DHT22;5715;48.234;14.320;2022-10-12T07:47:58;13.00;99.90
11320;DHT22;5715;48.234;14.320;2022-10-12T07:50:47;13.00;99.90
11320;DHT22;5715;48.234;14.320;2022-10-12T07:53:35;13.10;99.90
11320;DHT22;5715;48.234;14.320;2022-10-12T07:56:25;13.20;99.90
11320;DHT22;5715;48.234;14.320;2022-10-12T07:59:13;13.30;99.90
11320;DHT22;5715;48.234;14.320;2022-10-12T08:02:01;13.30;99.90
11320;DHT22;5715;48.234;14.320;2022-10-12T08:04:48;13.50;99.90
11320;DHT22;5715;48.234;14.320;2022-10-12T08:07:36;13.50;99.90
11320;DHT22;5715;48.234;14.320;2022-10-12T08:10:24;13.50;99.90
11320;DHT22;5715;48.234;14.320;2022-10-12T08:13:12;13.60;99.90
11320;DHT22;5715;48.234;14.320;2022-10-12T08:16:00;13.60;99.90
11320;DHT22;5715;48.234;14.320;2022-10-12T08:18:49;13.70;99.90
11320;DHT22;5715;48.234;14.320;2022-10-12T08:21:37;13.80;99.90
11320;DHT22;5715;48.234;14.320;2022-10-12T08:24:25;14.10;99.90
11320;DHT22;5715;48.234;14.320;2022-10-12T08:27:12;14.20;99.90
11320;DHT22;5715;48.234;14.320;2022-10-12T08:30:00;14.40;99.90
11320;DHT22;5715;48.234;14.320;2022-10-12T08:32:47;14.50;99.90
11320;DHT22;5715;48.234;14.320;2022-10-12T08:35:41;14.70;99.90
11320;DHT22;5715;48.234;14.320;2022-10-12T08:38:29;15.00;99.90
11320;DHT22;5715;48.234;14.320;2022-10-12T08:44:51;15.50;99.90
11320;DHT22;5715;48.234;14.320;2022-10-12T08:48:12;15.60;99.90
11320;DHT22;5715;48.234;14.320;2022-10-12T08:51:11;15.60;99.90
11320;DHT22;5715;48.234;14.320;2022-10-12T08:54:04;15.50;99.90
11320;DHT22;5715;48.234;14.320;2022-10-12T08:56:55;15.40;99.90
11320;DHT22;5715;48.234;14.320;2022-10-12T08:59:45;15.40;99.90
11320;DHT22;5715;48.234;14.320;2022-10-12T09:03:01;15.30;99.90
11320;DHT22;5715;48.234;14.320;2022-10-12T09:06:03;15.20;99.90
11320;DHT22;5715;48.234;14.320;2022-10-12T09:09:26;15.20;99.90
11320;DHT22;5715;48.234;14.320;2022-10-12T09:15:51;15.40;99.90
11320;DHT22;5715;48.234;14.320;2022-10-12T09:19:02;15.40;99.90
11320;DHT22;5715;48.234;14.320;2022-10-12T09:21:56;15.70;99.90
11320;DHT22;5715;48.234;14.320;2022-10-12T09:24:47;15.70;99.90
11320;DHT22;5715;48.234;14.320;2022-10-12T09:27:36;15.80;99.90
11320;DHT22;5715;48.234;14.320;2022-10-12T09:30:30;15.90;99.90
11320;DHT22;5715;48.234;14.320;2022-10-12T09:33:37;16.10;99.90
11320;DHT22;5715;48.234;14.320;2022-10-12T09:36:35;16.20;99.90
11320;DHT22;5715;48.234;14.320;2022-10-12T09:39:37;16.20;99.90
11320;DHT22;5715;48.234;14.320;2022-10-12T09:42:27;16.30;99.90
11320;DHT22;5715;48.234;14.320;2022-10-12T09:45:19;16.40;99.90
11320;DHT22;5715;48.234;14.320;2022-10-12T09:48:16;16.70;99.90
11320;DHT22;5715;48.234;14.320;2022-10-12T09:51:06;16.90;99.90
11320;DHT22;5715;48.234;14.320;2022-10-12T09:53:54;17.20;99.90
11320;DHT22;5715;48.234;14.320;2022-10-12T09:56:48;17.40;99.90
11320;DHT22;5715;48.234;14.320;2022-10-12T09:59:43;17.50;99.90
11320;DHT22;5715;48.234;14.320;2022-10-12T10:02:32;17.70;99.90
11320;DHT22;5715;48.234;14.320;2022-10-12T10:05:37;17.50;99.90
11320;DHT22;5715;48.234;14.320;2022-10-12T10:08:24;17.30;99.90
11320;DHT22;5715;48.234;14.320;2022-10-12T10:11:19;17.30;99.90
11320;DHT22;5715;48.234;14.320;2022-10-12T10:14:12;17.30;99.90
11320;DHT22;5715;48.234;14.320;2022-10-12T10:17:01;17.30;99.90
11320;DHT22;5715;48.234;14.320;2022-10-12T10:19:53;17.20;99.90
11320;DHT22;5715;48.234;14.320;2022-10-12T10:22:48;17.10;99.90
11320;DHT22;5715;48.234;14.320;2022-10-12T10:25:36;16.90;99.90
11320;DHT22;5715;48.234;14.320;2022-10-12T10:28:28;16.90;99.90
11320;DHT22;5715;48.234;14.320;2022-10-12T10:31:22;16.90;99.90
11320;DHT22;5715;48.234;14.320;2022-10-12T10:37:17;16.70;99.90
11320;DHT22;5715;48.234;14.320;2022-10-12T10:40:26;16.70;99.90
11320;DHT22;5715;48.234;14.320;2022-10-12T10:43:26;16.90;99.90
11320;DHT22;5715;48.234;14.320;2022-10-12T10:46:22;17.10;99.90
11320;DHT22;5715;48.234;14.320;2022-10-12T10:49:24;17.30;99.90
11320;DHT22;5715;48.234;14.320;2022-10-12T11:01:53;17.40;99.90
11320;DHT22;5715;48.234;14.320;2022-10-12T11:04:49;17.30;99.90
11320;DHT22;5715;48.234;14.320;2022-10-12T11:07:41;17.30;99.90
11320;DHT22;5715;48.234;14.320;2022-10-12T11:11:18;17.30;99.90
11320;DHT22;5715;48.234;14.320;2022-10-12T11:14:50;17.50;99.90
11320;DHT22;5715;48.234;14.320;2022-10-12T11:17:49;17.80;99.90
11320;DHT22;5715;48.234;14.320;2022-10-12T11:21:04;17.80;99.90
11320;DHT22;5715;48.234;14.320;2022-10-12T11:24:34;17.70;99.90
11320;DHT22;5715;48.234;14.320;2022-10-12T11:27:38;17.60;99.90
11320;DHT22;5715;48.234;14.320;2022-10-12T11:30:40;17.40;99.90
11320;DHT22;5715;48.234;14.320;2022-10-12T11:33:36;17.50;99.90
11320;DHT22;5715;48.234;14.320;2022-10-12T11:36:29;17.60;99.90
11320;DHT22;5715;48.234;14.320;2022-10-12T11:39:31;17.50;99.90
11320;DHT22;5715;48.234;14.320;2022-10-12T11:42:30;17.60;99.90
11320;DHT22;5715;48.234;14.320;2022-10-12T11:45:29;17.50;99.90
11320;DHT22;5715;48.234;14.320;2022-10-12T11:48:46;17.60;99.90
11320;DHT22;5715;48.234;14.320;2022-10-12T11:51:42;17.70;99.90
11320;DHT22;5715;48.234;14.320;2022-10-12T11:55:03;17.70;99.90
11320;DHT22;5715;48.234;14.320;2022-10-12T11:58:21;17.80;99.90
11320;DHT22;5715;48.234;14.320;2022-10-12T12:04:45;18.20;99.90
11320;DHT22;5715;48.234;14.320;2022-10-12T12:07:45;18.30;99.90
11320;DHT22;5715;48.234;14.320;2022-10-12T12:13:26;18.40;99.90
11320;DHT22;5715;48.234;14.320;2022-10-12T12:19:36;18.40;99.90
11320;DHT22;5715;48.234;14.320;2022-10-12T12:28:25;18.40;99.90
11320;DHT22;5715;48.234;14.320;2022-10-12T12:31:15;18.40;99.90
11320;DHT22;5715;48.234;14.320;2022-10-12T12:34:14;18.50;99.90
11320;DHT22;5715;48.234;14.320;2022-10-12T12:37:11;18.50;99.90
11320;DHT22;5715;48.234;14.320;2022-10-12T12:39:59;18.60;99.90
11320;DHT22;5715;48.234;14.320;2022-10-12T12:42:47;18.60;99.90
11320;DHT22;5715;48.234;14.320;2022-10-12T12:45:39;18.70;99.90
11320;DHT22;5715;48.234;14.320;2022-10-12T12:51:36;18.80;99.90
11320;DHT22;5715;48.234;14.320;2022-10-12T12:54:26;18.70;99.90
11320;DHT22;5715;48.234;14.320;2022-10-12T13:03:48;18.70;99.90
11320;DHT22;5715;48.234;14.320;2022-10-12T13:13:30;18.70;99.90
11320;DHT22;5715;48.234;14.320;2022-10-12T13:19:53;18.70;99.90
11320;DHT22;5715;48.234;14.320;2022-10-12T13:22:43;18.80;99.90
11320;DHT22;5715;48.234;14.320;2022-10-12T13:25:57;18.90;99.90
11320;DHT22;5715;48.234;14.320;2022-10-12T13:28:47;18.80;99.90
11320;DHT22;5715;48.234;14.320;2022-10-12T13:31:40;18.80;99.90
11320;DHT22;5715;48.234;14.320;2022-10-12T13:34:39;18.90;99.90
11320;DHT22;5715;48.234;14.320;2022-10-12T13:37:30;18.70;99.90
11320;DHT22;5715;48.234;14.320;2022-10-12T13:40:37;18.70;99.90
11320;DHT22;5715;48.234;14.320;2022-10-12T13:46:49;18.60;99.90
11320;DHT22;5715;48.234;14.320;2022-10-12T13:49:42;18.40;99.90
11320;DHT22;5715;48.234;14.320;2022-10-12T13:52:32;18.40;99.90
11320;DHT22;5715;48.234;14.320;2022-10-12T13:55:24;18.40;99.90
11320;DHT22;5715;48.234;14.320;2022-10-12T13:58:22;18.30;99.90
11320;DHT22;5715;48.234;14.320;2022-10-12T14:01:16;18.40;99.90
11320;DHT22;5715;48.234;14.320;2022-10-12T14:04:04;18.40;99.90
11320;DHT22;5715;48.234;14.320;2022-10-12T14:06:56;18.30;99.90
11320;DHT22;5715;48.234;14.320;2022-10-12T14:09:50;18.30;99.90
11320;DHT22;5715;48.234;14.320;2022-10-12T14:12:44;18.30;99.90
11320;DHT22;5715;48.234;14.320;2022-10-12T14:15:38;18.30;99.90
11320;DHT22;5715;48.234;14.320;2022-10-12T14:18:39;18.20;99.90
11320;DHT22;5715;48.234;14.320;2022-10-12T14:21:29;18.30;99.90
11320;DHT22;5715;48.234;14.320;2022-10-12T14:24:22;18.30;99.90
11320;DHT22;5715;48.234;14.320;2022-10-12T14:27:23;18.30;99.90
11320;DHT22;5715;48.234;14.320;2022-10-12T14:30:24;18.30;99.90
11320;DHT22;5715;48.234;14.320;2022-10-12T14:36:29;18.30;99.90
11320;DHT22;5715;48.234;14.320;2022-10-12T14:39:18;18.30;99.90
11320;DHT22;5715;48.234;14.320;2022-10-12T14:42:28;18.20;99.90
11320;DHT22;5715;48.234;14.320;2022-10-12T14:45:23;18.20;99.90
11320;DHT22;5715;48.234;14.320;2022-10-12T14:48:20;18.20;99.90
11320;DHT22;5715;48.234;14.320;2022-10-12T14:51:09;18.20;99.90
11320;DHT22;5715;48.234;14.320;2022-10-12T14:54:03;18.20;99.90
11320;DHT22;5715;48.234;14.320;2022-10-12T14:56:51;18.20;99.90
11320;DHT22;5715;48.234;14.320;2022-10-12T14:59:38;18.20;99.90
11320;DHT22;5715;48.234;14.320;2022-10-12T15:02:31;18.10;99.90
11320;DHT22;5715;48.234;14.320;2022-10-12T15:05:21;18.00;99.90
11320;DHT22;5715;48.234;14.320;2022-10-12T15:08:11;18.00;99.90
11320;DHT22;5715;48.234;14.320;2022-10-12T15:10:58;17.90;99.90
11320;DHT22;5715;48.234;14.320;2022-10-12T15:13:46;17.90;99.90
11320;DHT22;5715;48.234;14.320;2022-10-12T15:16:33;17.90;99.90
11320;DHT22;5715;48.234;14.320;2022-10-12T15:19:21;17.80;99.90
11320;DHT22;5715;48.234;14.320;2022-10-12T15:22:20;17.60;99.90
11320;DHT22;5715;48.234;14.320;2022-10-12T15:25:20;17.50;99.90
11320;DHT22;5715;48.234;14.320;2022-10-12T15:28:11;17.40;99.90
11320;DHT22;5715;48.234;14.320;2022-10-12T15:30:59;17.40;99.90
11320;DHT22;5715;48.234;14.320;2022-10-12T15:34:11;17.30;99.90
11320;DHT22;5715;48.234;14.320;2022-10-12T15:37:01;17.10;99.90
11320;DHT22;5715;48.234;14.320;2022-10-12T15:39:54;17.00;99.90
11320;DHT22;5715;48.234;14.320;2022-10-12T15:42:42;16.80;99.90
11320;DHT22;5715;48.234;14.320;2022-10-12T15:45:33;16.80;99.90
11320;DHT22;5715;48.234;14.320;2022-10-12T15:48:45;16.70;99.90
11320;DHT22;5715;48.234;14.320;2022-10-12T15:51:44;16.60;99.90
11320;DHT22;5715;48.234;14.320;2022-10-12T15:54:35;16.40;99.90
11320;DHT22;5715;48.234;14.320;2022-10-12T15:57:38;16.40;99.90
11320;DHT22;5715;48.234;14.320;2022-10-12T16:00:28;16.30;99.90
11320;DHT22;5715;48.234;14.320;2022-10-12T16:03:20;16.10;99.90
11320;DHT22;5715;48.234;14.320;2022-10-12T16:06:12;16.10;99.90
11320;DHT22;5715;48.234;14.320;2022-10-12T16:09:00;15.90;99.90
11320;DHT22;5715;48.234;14.320;2022-10-12T16:11:48;15.80;99.90
11320;DHT22;5715;48.234;14.320;2022-10-12T16:14:36;15.70;99.90
11320;DHT22;5715;48.234;14.320;2022-10-12T16:17:23;15.60;99.90
11320;DHT22;5715;48.234;14.320;2022-10-12T16:20:11;15.50;99.90
11320;DHT22;5715;48.234;14.320;2022-10-12T16:22:59;15.30;99.90
11320;DHT22;5715;48.234;14.320;2022-10-12T16:25:47;15.20;99.90
11320;DHT22;5715;48.234;14.320;2022-10-12T16:28:35;15.10;99.90
11320;DHT22;5715;48.234;14.320;2022-10-12T16:31:23;15.00;99.90
11320;DHT22;5715;48.234;14.320;2022-10-12T16:34:11;15.00;99.90
11320;DHT22;5715;48.234;14.320;2022-10-12T16:36:58;14.90;99.90
11320;DHT22;5715;48.234;14.320;2022-10-12T16:39:46;14.80;99.90
11320;DHT22;5715;48.234;14.320;2022-10-12T16:42:34;14.80;99.90
11320;DHT22;5715;48.234;14.320;2022-10-12T16:45:23;14.80;99.90
11320;DHT22;5715;48.234;14.320;2022-10-12T16:48:11;14.70;99.90
11320;DHT22;5715;48.234;14.320;2022-10-12T16:50:59;14.60;99.90
11320;DHT22;5715;48.234;14.320;2022-10-12T16:53:47;14.60;99.90
11320;DHT22;5715;48.234;14.320;2022-10-12T16:56:34;14.60;99.90
11320;DHT22;5715;48.234;14.320;2022-10-12T16:59:26;14.50;99.90
11320;DHT22;5715;48.234;14.320;2022-10-12T17:02:14;14.40;99.90
11320;DHT22;5715;48.234;14.320;2022-10-12T17:05:05;14.40;99.90
11320;DHT22;5715;48.234;14.320;2022-10-12T17:07:53;14.20;99.90
11320;DHT22;5715;48.234;14.320;2022-10-12T17:10:43;14.20;99.90
11320;DHT22;5715;48.234;14.320;2022-10-12T17:13:31;13.90;99.90
11320;DHT22;5715;48.234;14.320;2022-10-12T17:16:21;13.90;99.90
11320;DHT22;5715;48.234;14.320;2022-10-12T17:19:33;13.80;99.90
11320;DHT22;5715;48.234;14.320;2022-10-12T17:22:23;13.70;99.90
11320;DHT22;5715;48.234;14.320;2022-10-12T17:25:10;13.50;99.90
11320;DHT22;5715;48.234;14.320;2022-10-12T17:27:58;13.20;99.90
11320;DHT22;5715;48.234;14.320;2022-10-12T17:30:45;12.90;99.90
11320;DHT22;5715;48.234;14.320;2022-10-12T17:33:33;12.70;99.90
11320;DHT22;5715;48.234;14.320;2022-10-12T17:36:21;12.60;99.90
11320;DHT22;5715;48.234;14.320;2022-10-12T17:39:14;12.60;99.90
11320;DHT22;5715;48.234;14.320;2022-10-12T17:42:03;12.70;99.90
11320;DHT22;5715;48.234;14.320;2022-10-12T17:44:51;12.70;99.90
11320;DHT22;5715;48.234;14.320;2022-10-12T17:47:38;12.70;99.90
11320;DHT22;5715;48.234;14.320;2022-10-12T17:50:26;12.60;99.90
11320;DHT22;5715;48.234;14.320;2022-10-12T17:53:14;12.40;99.90
11320;DHT22;5715;48.234;14.320;2022-10-12T17:56:02;12.20;99.90
11320;DHT22;5715;48.234;14.320;2022-10-12T17:59:00;11.90;99.90
11320;DHT22;5715;48.234;14.320;2022-10-12T18:01:49;11.70;99.90
11320;DHT22;5715;48.234;14.320;2022-10-12T18:04:37;11.50;99.90
11320;DHT22;5715;48.234;14.320;2022-10-12T18:07:25;11.30;99.90
11320;DHT22;5715;48.234;14.320;2022-10-12T18:10:12;11.20;99.90
11320;DHT22;5715;48.234;14.320;2022-10-12T18:13:00;11.00;99.90
11320;DHT22;5715;48.234;14.320;2022-10-12T18:15:47;10.90;99.90
11320;DHT22;5715;48.234;14.320;2022-10-12T18:18:36;10.80;99.90
11320;DHT22;5715;48.234;14.320;2022-10-12T18:21:26;10.70;99.90
11320;DHT22;5715;48.234;14.320;2022-10-12T18:24:14;10.60;99.90
11320;DHT22;5715;48.234;14.320;2022-10-12T18:27:03;10.50;99.90
11320;DHT22;5715;48.234;14.320;2022-10-12T18:29:51;10.50;99.90
11320;DHT22;5715;48.234;14.320;2022-10-12T18:32:38;10.40;99.90
11320;DHT22;5715;48.234;14.320;2022-10-12T18:35:32;10.40;99.90
11320;DHT22;5715;48.234;14.320;2022-10-12T18:38:20;10.40;99.90
11320;DHT22;5715;48.234;14.320;2022-10-12T18:41:12;10.30;99.90
11320;DHT22;5715;48.234;14.320;2022-10-12T18:44:02;10.30;99.90
11320;DHT22;5715;48.234;14.320;2022-10-12T18:46:50;10.20;99.90
11320;DHT22;5715;48.234;14.320;2022-10-12T18:49:37;10.10;99.90
11320;DHT22;5715;48.234;14.320;2022-10-12T18:52:25;10.10;99.90
11320;DHT22;5715;48.234;14.320;2022-10-12T18:55:13;10.00;99.90
11320;DHT22;5715;48.234;14.320;2022-10-12T18:58:00;10.00;99.90
11320;DHT22;5715;48.234;14.320;2022-10-12T19:00:48;9.90;99.90
11320;DHT22;5715;48.234;14.320;2022-10-12T19:03:36;9.80;99.90
11320;DHT22;5715;48.234;14.320;2022-10-12T19:06:27;9.70;99.90
11320;DHT22;5715;48.234;14.320;2022-10-12T19:09:18;9.70;99.90
11320;DHT22;5715;48.234;14.320;2022-10-12T19:12:06;9.70;99.90
11320;DHT22;5715;48.234;14.320;2022-10-12T19:14:54;9.60;99.90
11320;DHT22;5715;48.234;14.320;2022-10-12T19:17:41;9.60;99.90
11320;DHT22;5715;48.234;14.320;2022-10-12T19:20:28;9.50;99.90
11320;DHT22;5715;48.234;14.320;2022-10-12T19:23:18;9.50;99.90
11320;DHT22;5715;48.234;14.320;2022-10-12T19:26:13;9.40;99.90
11320;DHT22;5715;48.234;14.320;2022-10-12T19:29:02;9.40;99.90
11320;DHT22;5715;48.234;14.320;2022-10-12T19:31:51;9.40;99.90